Weather at Jorge Chávez International Airport

Public forecast

Using degrees Celsius for public forecast. Weather courtesy of forecast.io.

Current aviation weather report (METAR) for Jorge Chávez International Airport

Retrieved 2021/01/26 14:00 UTC (24 minutes ago):

SPJC 261400Z 18007KT CAVOK 22/19 Q1012 NOSIG RMK PP000

Closest aviation forecast (TAF) to Jorge Chávez International Airport

Retrieved 2021/01/26 12:33 UTC (2 hours ago):

TAF SPJC 261100Z 2612/2712 18005KT 9999 SCT100 TX28/2619Z TN21/2711Z FM261800 18012KT CAVOK FM270400 17007KT 9999 FEW010 BKN130